Time;durP1;ratioP1;P1;durP2;ratioP2;P2;SDS_P1;SDS_P2;PMS_P1;PMS_P2;Temp;Humidity;BMP_temperature;BMP_pressure;BME280_temperature;BME280_humidity;BME280_pressure;Samples;Min_cycle;Max_cycle;Signal;HPM_P1;HPM_P2
2021/10/14 00:00:46;;;;;;;7.70;7.00;;;3.30;85.30;;;;;;5216766;28;20191;-66
2021/10/14 00:03:23;;;;;;;7.45;6.75;;;3.30;85.20;;;;;;5218399;28;20041;-66
2021/10/14 00:05:58;;;;;;;7.10;6.40;;;3.30;85.20;;;;;;5216895;28;20136;-65
2021/10/14 00:08:30;;;;;;;7.95;7.15;;;3.20;86.10;;;;;;5217292;28;20045;-66
2021/10/14 00:11:02;;;;;;;7.38;6.68;;;3.20;85.70;;;;;;5217281;28;20045;-67
2021/10/14 00:13:34;;;;;;;7.57;6.88;;;3.20;86.00;;;;;;5217721;28;20072;-66
2021/10/14 00:16:06;;;;;;;7.32;6.63;;;3.10;85.60;;;;;;5217368;28;20053;-65
2021/10/14 00:18:38;;;;;;;7.53;6.72;;;3.10;85.80;;;;;;5217823;28;20515;-65
2021/10/14 00:21:10;;;;;;;7.47;6.78;;;3.00;86.30;;;;;;5216360;28;20051;-66
2021/10/14 00:23:42;;;;;;;7.40;6.70;;;3.10;86.30;;;;;;5218610;28;20124;-66
2021/10/14 00:26:14;;;;;;;7.70;6.88;;;3.10;85.90;;;;;;5209266;28;20437;-66
2021/10/14 00:28:46;;;;;;;7.53;6.72;;;3.10;85.40;;;;;;5218055;28;20561;-65
2021/10/14 00:31:17;;;;;;;7.50;6.80;;;3.10;85.20;;;;;;5217322;28;20044;-65
2021/10/14 00:33:49;;;;;;;7.63;6.82;;;3.10;85.30;;;;;;5218036;28;20596;-66
2021/10/14 00:36:21;;;;;;;7.43;6.72;;;3.10;85.30;;;;;;5216317;28;20084;-65
2021/10/14 00:38:53;;;;;;;7.47;6.65;;;3.10;85.20;;;;;;5217147;28;20043;-65
2021/10/14 00:41:25;;;;;;;7.55;6.85;;;3.10;85.20;;;;;;5214926;28;20049;-65
2021/10/14 00:43:58;;;;;;;7.72;6.88;;;3.10;84.80;;;;;;5217285;28;20059;-65
2021/10/14 00:46:30;;;;;;;7.97;6.70;;;3.10;84.60;;;;;;5216970;28;20048;-67
2021/10/14 00:49:02;;;;;;;7.40;6.70;;;3.10;84.30;;;;;;5217184;28;20041;-68
2021/10/14 00:51:34;;;;;;;7.30;6.65;;;3.00;84.50;;;;;;5216924;28;20524;-66
2021/10/14 00:54:06;;;;;;;7.32;6.72;;;2.90;84.50;;;;;;5217122;28;20045;-66
2021/10/14 00:56:39;;;;;;;7.00;6.30;;;2.90;85.00;;;;;;5215139;28;21014;-66
2021/10/14 00:59:13;;;;;;;7.30;6.60;;;2.90;85.10;;;;;;5215913;28;20064;-66
2021/10/14 01:01:45;;;;;;;7.50;6.80;;;3.00;84.80;;;;;;5216104;28;20136;-66
2021/10/14 01:04:17;;;;;;;7.22;6.53;;;3.00;84.40;;;;;;5208884;28;20080;-66
2021/10/14 01:06:49;;;;;;;7.45;6.75;;;2.90;84.90;;;;;;5215820;28;20049;-67
2021/10/14 01:09:21;;;;;;;7.13;6.53;;;2.90;84.80;;;;;;5216362;28;20044;-66
2021/10/14 01:11:53;;;;;;;7.20;6.60;;;2.90;85.00;;;;;;5216499;28;20059;-66
2021/10/14 01:14:24;;;;;;;7.50;6.80;;;2.90;85.30;;;;;;5216147;28;20048;-65
2021/10/14 01:16:56;;;;;;;7.43;6.72;;;2.80;84.80;;;;;;5215211;28;20073;-66
2021/10/14 01:19:28;;;;;;;7.43;6.82;;;2.80;85.00;;;;;;5216618;28;20733;-66
2021/10/14 01:22:00;;;;;;;7.47;6.78;;;2.80;84.90;;;;;;5216138;28;20475;-65
2021/10/14 01:24:32;;;;;;;7.60;6.90;;;2.80;84.70;;;;;;5216576;28;20083;-66
2021/10/14 01:27:06;;;;;;;7.60;6.90;;;2.80;84.50;;;;;;5215562;28;20130;-66
2021/10/14 01:29:38;;;;;;;8.20;7.40;;;2.80;85.00;;;;;;5216630;28;20500;-66
2021/10/14 01:32:09;;;;;;;7.90;7.20;;;2.70;84.60;;;;;;5215876;28;20055;-66
2021/10/14 01:34:41;;;;;;;8.10;7.40;;;2.70;84.60;;;;;;5216369;28;20125;-67
2021/10/14 01:37:13;;;;;;;7.80;7.10;;;2.70;84.50;;;;;;5215275;28;20455;-66
2021/10/14 01:39:45;;;;;;;8.60;7.30;;;2.70;84.20;;;;;;5216474;28;20067;-66
2021/10/14 01:42:17;;;;;;;7.63;6.93;;;2.70;83.90;;;;;;5215200;28;20048;-67
2021/10/14 01:44:49;;;;;;;7.15;6.43;;;2.70;83.80;;;;;;5216462;28;20099;-67
2021/10/14 01:47:21;;;;;;;7.20;6.50;;;2.70;83.70;;;;;;5215489;28;20075;-66
2021/10/14 01:49:53;;;;;;;7.53;6.82;;;2.70;83.90;;;;;;5230615;28;20147;-65
2021/10/14 01:52:25;;;;;;;7.28;6.57;;;2.70;84.20;;;;;;5215565;28;20049;-66
2021/10/14 01:54:56;;;;;;;7.32;6.63;;;2.70;85.00;;;;;;5215949;28;20051;-65
2021/10/14 01:57:28;;;;;;;7.07;6.40;;;2.60;85.10;;;;;;5216055;28;20060;-66
2021/10/14 02:00:00;;;;;;;7.05;6.35;;;2.60;84.80;;;;;;5215288;28;20045;-65
2021/10/14 02:02:42;;;;;;;6.82;6.22;;;2.60;84.60;;;;;;5216290;28;20430;-66
2021/10/14 02:05:14;;;;;;;7.25;6.55;;;2.50;85.40;;;;;;5215582;28;20084;-65
2021/10/14 02:07:46;;;;;;;6.80;6.20;;;2.60;85.30;;;;;;5207599;28;20076;-66
2021/10/14 02:10:17;;;;;;;7.10;6.40;;;2.60;85.30;;;;;;5213734;28;20049;-67
2021/10/14 02:12:51;;;;;;;7.32;6.43;;;2.60;85.30;;;;;;5208880;28;20127;-66
2021/10/14 02:15:23;;;;;;;7.32;6.63;;;2.60;85.30;;;;;;5214442;28;20536;-67
2021/10/14 02:17:55;;;;;;;7.05;6.38;;;2.60;84.90;;;;;;5213941;28;20055;-66
2021/10/14 02:20:27;;;;;;;7.43;6.72;;;2.60;84.90;;;;;;5214023;28;20068;-66
2021/10/14 02:22:59;;;;;;;7.15;6.45;;;2.50;85.10;;;;;;5215579;28;20652;-65
2021/10/14 02:25:31;;;;;;;6.85;6.25;;;2.50;85.00;;;;;;5214599;28;20049;-67
2021/10/14 02:28:03;;;;;;;7.50;6.80;;;2.50;85.30;;;;;;5213917;28;20048;-66
2021/10/14 02:30:35;;;;;;;7.50;6.80;;;2.50;85.30;;;;;;5216082;28;20037;-66
2021/10/14 02:33:09;;;;;;;7.40;6.70;;;2.50;85.10;;;;;;5215113;28;20134;-66
2021/10/14 02:35:42;;;;;;;7.28;6.57;;;2.50;85.10;;;;;;5215065;28;20133;-66
2021/10/14 02:38:14;;;;;;;7.10;6.40;;;2.50;85.10;;;;;;5215836;28;20122;-66
2021/10/14 02:40:46;;;;;;;7.50;6.80;;;2.40;84.70;;;;;;5213249;28;20045;-66
2021/10/14 02:43:18;;;;;;;7.68;6.97;;;2.40;84.80;;;;;;5215435;28;20552;-66
2021/10/14 02:45:50;;;;;;;7.68;6.97;;;2.30;84.50;;;;;;5215511;28;20638;-65
2021/10/14 02:48:22;;;;;;;8.05;7.22;;;2.30;84.80;;;;;;5215193;28;20142;-66
2021/10/14 02:50:54;;;;;;;8.05;7.25;;;2.20;84.40;;;;;;5215396;28;20135;-65
2021/10/14 02:53:26;;;;;;;7.25;6.55;;;2.20;84.20;;;;;;5213658;28;20586;-65
2021/10/14 02:55:57;;;;;;;7.65;6.80;;;2.20;83.90;;;;;;5213486;28;20049;-65
2021/10/14 02:58:29;;;;;;;7.20;6.50;;;2.20;83.70;;;;;;5215330;28;20049;-65
2021/10/14 03:01:01;;;;;;;8.82;6.47;;;2.30;83.60;;;;;;5214039;28;20047;-66
2021/10/14 03:03:34;;;;;;;7.35;6.65;;;2.30;83.80;;;;;;5215982;28;20051;-67
2021/10/14 03:06:06;;;;;;;6.72;6.03;;;2.20;84.00;;;;;;5215128;28;20055;-66
2021/10/14 03:08:38;;;;;;;6.72;6.13;;;2.20;84.50;;;;;;5214957;28;20116;-66
2021/10/14 03:11:09;;;;;;;7.03;6.32;;;2.20;84.90;;;;;;5215139;28;20415;-65
2021/10/14 03:13:41;;;;;;;6.70;6.03;;;2.30;85.30;;;;;;5215666;28;20037;-66
2021/10/14 03:16:13;;;;;;;7.20;6.50;;;2.20;85.60;;;;;;5214229;28;20072;-66
2021/10/14 03:18:55;;;;;;;6.85;6.15;;;2.20;85.40;;;;;;5215517;28;20098;-65
2021/10/14 03:21:27;;;;;;;7.57;6.88;;;2.20;85.30;;;;;;5215140;28;20156;-67
2021/10/14 03:23:58;;;;;;;7.07;6.32;;;2.10;85.00;;;;;;5215888;28;20878;-66
2021/10/14 03:26:30;;;;;;;6.90;6.30;;;2.10;85.10;;;;;;5214016;28;20563;-65
2021/10/14 03:29:02;;;;;;;6.90;6.30;;;2.10;85.00;;;;;;5215817;28;20045;-66
2021/10/14 03:31:34;;;;;;;7.00;6.20;;;2.10;86.30;;;;;;5219651;28;20140;-65
2021/10/14 03:34:06;;;;;;;7.10;6.22;;;2.10;86.10;;;;;;5219358;28;20040;-65
2021/10/14 03:36:38;;;;;;;6.93;6.10;;;2.10;86.80;;;;;;5219060;28;20072;-65
2021/10/14 03:39:10;;;;;;;8.00;6.35;;;2.10;85.80;;;;;;5212151;28;20049;-65
2021/10/14 03:41:42;;;;;;;7.28;6.55;;;2.00;85.30;;;;;;5218288;28;20060;-65
2021/10/14 03:44:17;;;;;;;6.68;6.07;;;2.00;85.30;;;;;;5219834;28;20131;-65
2021/10/14 03:46:49;;;;;;;6.90;6.20;;;2.00;85.40;;;;;;5217117;28;20195;-66
2021/10/14 03:49:21;;;;;;;6.57;5.97;;;2.00;85.60;;;;;;5218638;28;20052;-66
2021/10/14 03:51:53;;;;;;;6.68;5.97;;;2.00;85.80;;;;;;5218407;28;20075;-66
2021/10/14 03:54:25;;;;;;;8.50;6.50;;;2.00;86.20;;;;;;5218463;28;20033;-66
2021/10/14 03:56:56;;;;;;;6.63;5.93;;;2.00;86.90;;;;;;5217889;28;20156;-65
2021/10/14 03:59:28;;;;;;;6.35;5.75;;;2.00;87.20;;;;;;5219015;28;20041;-67
2021/10/14 04:02:00;;;;;;;7.05;6.35;;;2.00;86.50;;;;;;5216558;28;20739;-65
2021/10/14 04:04:32;;;;;;;6.18;5.57;;;2.10;86.00;;;;;;5219465;28;20052;-66
2021/10/14 04:07:04;;;;;;;6.35;5.68;;;2.10;85.60;;;;;;5218048;28;20159;-65
2021/10/14 04:09:37;;;;;;;6.20;5.60;;;2.10;85.50;;;;;;5217809;28;20202;-67
2021/10/14 04:12:09;;;;;;;6.45;5.75;;;2.10;85.10;;;;;;5217551;28;20159;-66
2021/10/14 04:14:41;;;;;;;6.45;5.85;;;2.10;85.00;;;;;;5218038;28;20052;-67
2021/10/14 04:17:13;;;;;;;6.35;5.75;;;2.10;84.90;;;;;;5217385;28;20144;-65
2021/10/14 04:19:44;;;;;;;6.80;6.10;;;2.10;84.80;;;;;;5217749;28;20687;-65
2021/10/14 04:22:18;;;;;;;6.43;5.70;;;2.00;84.40;;;;;;5217897;28;20065;-66
2021/10/14 04:24:50;;;;;;;7.03;6.10;;;2.00;84.30;;;;;;5216568;28;20175;-65
2021/10/14 04:27:22;;;;;;;6.72;6.13;;;2.00;84.60;;;;;;5216712;28;20518;-67
2021/10/14 04:29:54;;;;;;;6.03;5.43;;;2.00;84.60;;;;;;5217853;28;20051;-65
2021/10/14 04:32:26;;;;;;;5.90;5.30;;;1.90;84.80;;;;;;5217339;28;20073;-66
2021/10/14 04:34:58;;;;;;;5.80;5.20;;;1.90;85.60;;;;;;5216769;28;20742;-65
2021/10/14 04:37:30;;;;;;;6.57;5.55;;;1.80;85.90;;;;;;5216275;28;21420;-65
2021/10/14 04:40:02;;;;;;;5.80;5.20;;;1.80;86.30;;;;;;5217492;28;20133;-65
2021/10/14 04:42:34;;;;;;;6.03;5.20;;;1.90;86.30;;;;;;5217197;28;20475;-65
2021/10/14 04:45:07;;;;;;;7.85;5.50;;;1.80;86.20;;;;;;5218548;28;20108;-65
2021/10/14 04:47:39;;;;;;;6.20;5.60;;;1.90;86.40;;;;;;5216116;28;20132;-65
2021/10/14 04:50:11;;;;;;;6.03;5.43;;;1.80;86.50;;;;;;5217725;28;20147;-65
2021/10/14 04:52:44;;;;;;;5.93;5.35;;;1.80;86.30;;;;;;5217742;28;20068;-66
2021/10/14 04:55:16;;;;;;;6.40;5.40;;;1.80;86.20;;;;;;5216692;28;20055;-65
2021/10/14 04:57:48;;;;;;;6.50;5.78;;;1.80;86.10;;;;;;5216549;28;20090;-67
2021/10/14 05:00:20;;;;;;;6.80;6.10;;;1.80;85.40;;;;;;5216697;28;20131;-66
2021/10/14 05:02:52;;;;;;;6.93;5.97;;;1.80;85.30;;;;;;5218335;28;20037;-65
2021/10/14 05:05:24;;;;;;;7.75;6.13;;;1.60;85.90;;;;;;5213888;28;20092;-65
2021/10/14 05:07:56;;;;;;;6.97;5.60;;;1.60;85.70;;;;;;5215538;28;20045;-66
2021/10/14 05:10:30;;;;;;;6.53;5.75;;;1.60;85.80;;;;;;5215743;28;20049;-66
2021/10/14 05:13:02;;;;;;;6.30;5.43;;;1.30;86.80;;;;;;5217192;28;20570;-65
2021/10/14 05:15:34;;;;;;;6.50;5.80;;;1.10;88.00;;;;;;5215850;28;20049;-66
2021/10/14 05:18:06;;;;;;;6.40;5.45;;;1.00;88.10;;;;;;5214931;28;20501;-67
2021/10/14 05:20:38;;;;;;;7.93;5.50;;;0.90;88.50;;;;;;5215022;28;20444;-65
2021/10/14 05:23:10;;;;;;;6.22;5.38;;;0.90;89.00;;;;;;5214539;28;20076;-66
2021/10/14 05:25:43;;;;;;;6.72;5.35;;;0.90;89.50;;;;;;5214696;28;20043;-64
2021/10/14 05:28:15;;;;;;;5.82;5.10;;;1.00;89.20;;;;;;5217338;28;20048;-65
2021/10/14 05:30:47;;;;;;;6.00;5.00;;;1.10;88.80;;;;;;5214885;28;20160;-65
2021/10/14 05:33:19;;;;;;;5.85;4.65;;;1.10;88.40;;;;;;5217157;28;20056;-65
2021/10/14 05:35:52;;;;;;;6.00;4.75;;;1.20;87.70;;;;;;5213026;28;20076;-65
2021/10/14 05:38:23;;;;;;;5.80;5.00;;;1.20;87.70;;;;;;5213268;28;20041;-66
2021/10/14 05:40:55;;;;;;;6.10;5.03;;;1.30;87.50;;;;;;5213580;28;20053;-66
2021/10/14 05:43:27;;;;;;;8.05;5.60;;;1.30;87.20;;;;;;5214184;28;20178;-65
2021/10/14 05:45:59;;;;;;;7.40;5.65;;;1.30;87.00;;;;;;5214878;28;20068;-65
2021/10/14 05:48:31;;;;;;;7.35;5.50;;;1.30;86.80;;;;;;5216765;28;20597;-65
2021/10/14 05:51:04;;;;;;;8.02;5.30;;;1.30;86.90;;;;;;5214616;28;20598;-66
2021/10/14 05:53:35;;;;;;;6.53;5.32;;;1.30;86.70;;;;;;5216367;28;20391;-66
2021/10/14 05:56:07;;;;;;;7.05;5.25;;;1.30;88.30;;;;;;5215384;28;20041;-66
2021/10/14 05:58:39;;;;;;;5.80;5.20;;;1.30;87.40;;;;;;5217154;28;20601;-66
2021/10/14 06:01:11;;;;;;;5.80;5.00;;;1.30;87.80;;;;;;5215269;28;20052;-67
2021/10/14 06:03:43;;;;;;;5.82;5.22;;;1.40;88.10;;;;;;5214673;28;20558;-66
2021/10/14 06:06:15;;;;;;;6.10;5.22;;;1.40;87.90;;;;;;5216117;28;20045;-67
2021/10/14 06:08:47;;;;;;;5.50;5.00;;;1.40;88.30;;;;;;5214909;28;20056;-65
2021/10/14 06:11:19;;;;;;;5.90;5.30;;;1.50;88.20;;;;;;5215081;28;20045;-65
2021/10/14 06:13:51;;;;;;;7.18;5.00;;;1.60;88.30;;;;;;5215921;28;20132;-66
2021/10/14 06:16:23;;;;;;;5.47;4.88;;;1.60;88.10;;;;;;5214431;28;20052;-65
2021/10/14 06:18:56;;;;;;;5.88;4.88;;;1.70;88.20;;;;;;5214788;28;20053;-65
2021/10/14 06:21:28;;;;;;;5.30;4.72;;;1.80;87.90;;;;;;5214936;28;20052;-66
2021/10/14 06:24:00;;;;;;;5.60;5.10;;;1.90;87.80;;;;;;5213712;28;20067;-66
2021/10/14 06:26:32;;;;;;;6.07;5.20;;;2.10;87.50;;;;;;5215138;28;20068;-65
2021/10/14 06:29:04;;;;;;;6.38;5.00;;;2.20;87.20;;;;;;5213292;28;20658;-65
2021/10/14 06:31:35;;;;;;;6.18;5.10;;;2.30;87.00;;;;;;5215055;28;20164;-66
2021/10/14 06:34:07;;;;;;;5.28;4.75;;;2.40;86.80;;;;;;5216089;28;20045;-66
2021/10/14 06:36:39;;;;;;;5.32;4.70;;;2.40;86.50;;;;;;5215657;28;20562;-66
2021/10/14 06:39:11;;;;;;;5.53;4.88;;;2.40;86.40;;;;;;5215535;28;20171;-65
2021/10/14 06:41:43;;;;;;;6.00;5.40;;;2.40;86.50;;;;;;5215011;28;20102;-66
2021/10/14 06:44:16;;;;;;;8.27;7.00;;;2.40;86.50;;;;;;5215667;28;20529;-66
2021/10/14 06:46:47;;;;;;;8.18;7.13;;;2.40;86.80;;;;;;5214486;28;20566;-66
2021/10/14 06:49:19;;;;;;;6.88;6.10;;;2.40;86.80;;;;;;5215195;28;20116;-66
2021/10/14 06:51:53;;;;;;;6.75;6.00;;;2.40;87.00;;;;;;5197530;28;20084;-65
2021/10/14 06:54:25;;;;;;;6.38;5.70;;;2.40;86.80;;;;;;5215017;28;20055;-66
2021/10/14 06:56:57;;;;;;;7.30;6.60;;;2.50;86.30;;;;;;5206399;28;20145;-65
2021/10/14 06:59:29;;;;;;;6.63;5.85;;;2.40;86.20;;;;;;5214997;28;20154;-65
2021/10/14 07:02:01;;;;;;;6.43;5.82;;;2.60;86.50;;;;;;5214454;28;20199;-67
2021/10/14 07:04:33;;;;;;;7.85;6.25;;;2.70;86.60;;;;;;5214828;28;20041;-66
2021/10/14 07:07:05;;;;;;;6.50;5.90;;;2.80;86.00;;;;;;5214239;28;20045;-66
2021/10/14 07:09:37;;;;;;;7.95;6.00;;;3.00;85.60;;;;;;5214573;28;20513;-66
2021/10/14 07:12:13;;;;;;;7.05;6.05;;;3.00;85.40;;;;;;5216552;28;20482;-66
2021/10/14 07:14:44;;;;;;;6.97;6.28;;;3.10;85.40;;;;;;5213611;28;20055;-66
2021/10/14 07:17:16;;;;;;;6.35;5.70;;;3.10;85.30;;;;;;5213917;28;20099;-66
2021/10/14 07:19:48;;;;;;;6.90;5.90;;;3.10;85.40;;;;;;5215584;28;20118;-66
2021/10/14 07:22:20;;;;;;;6.82;6.13;;;3.20;85.40;;;;;;5214219;28;20136;-66
2021/10/14 07:24:53;;;;;;;8.30;6.65;;;3.30;85.80;;;;;;5216026;28;20076;-66
2021/10/14 07:27:25;;;;;;;7.60;6.20;;;3.40;86.20;;;;;;5213267;28;20110;-66
2021/10/14 07:29:58;;;;;;;6.93;5.88;;;3.50;85.70;;;;;;5214823;28;20117;-66
2021/10/14 07:32:30;;;;;;;7.03;6.32;;;3.70;85.10;;;;;;5215276;28;20037;-66
2021/10/14 07:35:04;;;;;;;7.65;6.85;;;3.80;85.00;;;;;;5215074;28;20573;-66
2021/10/14 07:37:36;;;;;;;7.28;6.50;;;4.00;85.00;;;;;;5212384;28;20061;-66
2021/10/14 07:40:08;;;;;;;7.65;6.95;;;4.20;84.70;;;;;;5214732;28;20520;-67
2021/10/14 07:42:40;;;;;;;11.60;7.97;;;4.30;84.40;;;;;;5215176;28;20139;-66
2021/10/14 07:45:12;;;;;;;7.53;6.72;;;4.50;83.40;;;;;;5215457;28;20206;-66
2021/10/14 07:47:44;;;;;;;7.30;6.47;;;4.60;82.40;;;;;;5214387;28;20205;-65
2021/10/14 07:50:16;;;;;;;7.60;6.90;;;4.70;82.10;;;;;;5213848;28;20072;-67
2021/10/14 07:52:48;;;;;;;7.97;7.28;;;4.70;81.50;;;;;;5214312;28;20068;-65
2021/10/14 07:55:20;;;;;;;7.95;7.25;;;4.80;81.70;;;;;;5213754;28;20460;-66
2021/10/14 07:57:52;;;;;;;8.43;6.30;;;4.80;81.90;;;;;;5213653;28;20057;-66
2021/10/14 08:00:24;;;;;;;7.03;6.32;;;4.90;81.50;;;;;;5213270;28;20041;-67
2021/10/14 08:02:59;;;;;;;7.13;6.43;;;5.10;81.00;;;;;;5214966;28;20107;-66
2021/10/14 08:05:31;;;;;;;7.63;6.63;;;5.30;80.60;;;;;;5221751;28;20041;-66
2021/10/14 08:08:04;;;;;;;7.57;6.88;;;5.50;80.90;;;;;;5213888;28;20046;-66
2021/10/14 08:10:37;;;;;;;8.68;7.03;;;5.60;80.40;;;;;;5203980;28;20229;-66
2021/10/14 08:13:16;;;;;;;9.18;7.68;;;5.70;80.60;;;;;;5215804;28;20045;-66
2021/10/14 08:15:50;;;;;;;8.10;7.30;;;5.80;79.70;;;;;;5213536;28;20045;-66
2021/10/14 08:18:23;;;;;;;8.95;8.05;;;5.80;80.40;;;;;;5218512;28;20441;-66
2021/10/14 08:20:56;;;;;;;8.00;7.20;;;5.80;79.90;;;;;;5216663;28;20049;-67
2021/10/14 08:23:29;;;;;;;8.82;7.93;;;5.80;80.70;;;;;;5217917;28;20181;-66
2021/10/14 08:26:01;;;;;;;8.32;7.53;;;6.00;80.40;;;;;;5218356;28;20470;-66
2021/10/14 08:28:33;;;;;;;7.22;6.53;;;6.30;79.30;;;;;;5217537;28;20052;-66
2021/10/14 08:31:06;;;;;;;7.53;6.80;;;6.40;79.50;;;;;;5217493;28;20041;-67
2021/10/14 08:33:37;;;;;;;7.60;6.90;;;6.50;79.90;;;;;;5217112;28;20426;-66
2021/10/14 08:36:10;;;;;;;8.05;7.13;;;6.70;80.20;;;;;;5217134;28;20580;-68
2021/10/14 08:38:42;;;;;;;8.18;7.47;;;6.80;79.10;;;;;;5218255;28;20072;-67
2021/10/14 08:41:19;;;;;;;7.90;7.20;;;6.90;79.60;;;;;;5217687;28;20059;-67
2021/10/14 08:43:51;;;;;;;7.80;7.10;;;6.90;76.50;;;;;;5216619;28;20049;-67
2021/10/14 08:46:23;;;;;;;7.43;6.82;;;7.00;78.00;;;;;;5215445;28;20511;-67
2021/10/14 08:48:55;;;;;;;7.65;7.00;;;7.10;72.80;;;;;;5218276;28;20056;-66
2021/10/14 08:51:28;;;;;;;7.55;6.85;;;7.20;73.10;;;;;;5217562;28;20127;-67
2021/10/14 08:54:00;;;;;;;8.13;7.43;;;7.20;74.60;;;;;;5217701;28;20068;-66
2021/10/14 08:56:33;;;;;;;7.63;6.93;;;7.20;73.30;;;;;;5216779;28;20045;-66
2021/10/14 08:59:05;;;;;;;7.85;7.15;;;7.10;73.20;;;;;;5209147;28;20143;-67
2021/10/14 09:01:37;;;;;;;8.20;7.50;;;7.30;72.00;;;;;;5216045;28;20080;-67
2021/10/14 09:04:15;;;;;;;7.80;7.00;;;7.60;73.20;;;;;;5214724;28;20688;-67
2021/10/14 09:06:47;;;;;;;11.82;7.72;;;8.00;75.60;;;;;;5217957;28;20136;-67
2021/10/14 09:09:34;;;;;;;8.32;7.63;;;8.20;71.60;;;;;;5210319;28;20049;-67
2021/10/14 09:12:08;;;;;;;8.30;7.60;;;8.50;72.90;;;;;;5209518;28;20143;-66
2021/10/14 09:15:06;;;;;;;8.25;7.47;;;8.60;69.70;;;;;;5217810;28;20458;-66
2021/10/14 09:17:37;;;;;;;8.13;7.40;;;8.70;69.00;;;;;;5217030;28;20132;-66
2021/10/14 09:20:25;;;;;;;7.95;7.25;;;8.80;71.80;;;;;;5216056;28;20053;-66
2021/10/14 09:23:03;;;;;;;7.68;6.97;;;8.80;69.60;;;;;;5217889;28;20154;-67
2021/10/14 09:25:39;;;;;;;7.30;6.70;;;8.60;67.60;;;;;;5216388;28;20173;-68
2021/10/14 09:28:18;;;;;;;7.68;6.97;;;8.60;66.80;;;;;;5216507;28;20073;-67
2021/10/14 09:31:06;;;;;;;8.13;7.43;;;8.60;71.40;;;;;;5217020;28;20073;-67
2021/10/14 09:33:44;;;;;;;8.15;7.45;;;8.70;67.90;;;;;;5217255;28;20475;-67
2021/10/14 09:36:25;;;;;;;8.40;7.70;;;8.80;68.20;;;;;;5216877;28;20422;-66
2021/10/14 09:39:06;;;;;;;8.80;7.90;;;9.00;69.90;;;;;;5215897;28;20049;-66
2021/10/14 09:41:40;;;;;;;9.07;7.97;;;9.00;66.40;;;;;;5215696;28;20797;-67
2021/10/14 09:44:15;;;;;;;8.82;7.95;;;9.10;69.30;;;;;;5215720;28;20044;-68
2021/10/14 09:46:52;;;;;;;9.18;8.38;;;9.20;66.70;;;;;;5215800;28;20047;-68
2021/10/14 09:49:30;;;;;;;8.52;7.82;;;9.20;66.80;;;;;;5215181;28;20588;-67
2021/10/14 09:52:02;;;;;;;10.77;9.77;;;9.20;65.30;;;;;;5217046;28;20055;-66
2021/10/14 09:54:34;;;;;;;25.90;21.25;;;9.30;67.40;;;;;;5215152;28;20051;-65
2021/10/14 09:57:06;;;;;;;15.40;13.77;;;9.30;70.40;;;;;;5216306;28;20641;-66
2021/10/14 09:59:39;;;;;;;9.43;8.57;;;9.40;70.70;;;;;;5216350;28;20128;-67
2021/10/14 10:02:11;;;;;;;8.50;7.70;;;9.50;69.70;;;;;;5215959;28;20547;-66
2021/10/14 10:04:43;;;;;;;8.68;7.93;;;9.50;64.80;;;;;;5208411;28;20538;-66
2021/10/14 10:07:16;;;;;;;8.60;7.80;;;9.50;64.00;;;;;;5214166;28;20076;-67
2021/10/14 10:09:48;;;;;;;8.60;7.63;;;9.50;66.80;;;;;;5217614;28;20044;-67
2021/10/14 10:12:21;;;;;;;8.57;7.88;;;9.50;68.20;;;;;;5215660;28;20053;-67
2021/10/14 10:14:52;;;;;;;8.60;7.80;;;9.50;69.00;;;;;;5217326;28;20975;-68
2021/10/14 10:17:50;;;;;;;18.23;16.30;;;9.50;69.40;;;;;;5216002;28;20142;-66
2021/10/14 10:20:37;;;;;;;15.10;13.60;;;9.50;68.40;;;;;;5213812;28;20227;-66
2021/10/14 10:23:09;;;;;;;10.40;9.50;;;9.60;67.70;;;;;;5232388;28;20617;-67
2021/10/14 10:25:43;;;;;;;9.15;8.35;;;9.70;66.80;;;;;;5215347;28;20522;-67
2021/10/14 10:28:36;;;;;;;9.30;8.50;;;9.90;67.50;;;;;;5216443;28;20049;-67
2021/10/14 10:31:07;;;;;;;9.18;8.38;;;10.10;65.90;;;;;;5215814;28;20099;-67
2021/10/14 10:33:53;;;;;;;9.80;9.00;;;10.20;65.30;;;;;;5216197;28;20044;-67
2021/10/14 10:36:47;;;;;;;9.60;8.80;;;10.40;63.60;;;;;;5216473;28;20517;-67
2021/10/14 10:39:45;;;;;;;9.45;8.60;;;10.50;64.70;;;;;;5214682;28;20560;-68
2021/10/14 10:42:31;;;;;;;9.57;8.77;;;10.60;61.90;;;;;;5215935;28;20814;-68
2021/10/14 10:45:43;;;;;;;9.98;9.18;;;10.70;63.20;;;;;;5216381;28;20044;-68
2021/10/14 10:48:41;;;;;;;9.75;8.95;;;10.80;61.60;;;;;;5215939;28;20047;-67
2021/10/14 10:51:33;;;;;;;9.90;9.10;;;10.90;60.40;;;;;;5214287;28;20064;-67
2021/10/14 10:54:06;;;;;;;10.23;9.32;;;11.10;62.10;;;;;;5215393;28;20061;-68
2021/10/14 10:56:39;;;;;;;9.90;9.00;;;11.20;64.50;;;;;;5215457;28;20112;-67
2021/10/14 10:59:11;;;;;;;10.50;9.55;;;11.30;64.10;;;;;;5215400;28;20166;-67
2021/10/14 11:01:43;;;;;;;9.75;8.95;;;11.40;59.60;;;;;;5214039;28;20041;-67
2021/10/14 11:04:16;;;;;;;9.00;8.30;;;11.30;55.00;;;;;;5215681;28;20045;-67
2021/10/14 11:06:52;;;;;;;9.25;8.55;;;11.40;52.00;;;;;;5215391;28;20045;-67
2021/10/14 11:09:27;;;;;;;10.00;9.10;;;11.30;52.10;;;;;;5216176;28;20047;-67
2021/10/14 11:12:05;;;;;;;10.18;9.38;;;11.40;54.30;;;;;;5212659;28;20146;-67
2021/10/14 11:14:40;;;;;;;9.82;9.02;;;11.40;54.90;;;;;;5214684;28;20080;-67
2021/10/14 11:17:16;;;;;;;9.75;8.95;;;11.50;56.50;;;;;;5215371;28;20041;-67
2021/10/14 11:20:06;;;;;;;9.25;8.55;;;11.60;60.00;;;;;;5215172;28;20417;-66
2021/10/14 11:22:46;;;;;;;9.73;8.80;;;11.70;60.60;;;;;;5195069;28;20045;-67
2021/10/14 11:25:18;;;;;;;10.40;9.50;;;11.80;61.20;;;;;;5192716;28;20531;-67
2021/10/14 11:28:05;;;;;;;9.50;8.80;;;11.90;56.80;;;;;;5195164;28;20132;-67
2021/10/14 11:30:45;;;;;;;10.18;9.38;;;11.90;55.00;;;;;;5194309;28;20049;-67
2021/10/14 11:33:39;;;;;;;10.35;9.55;;;12.00;59.10;;;;;;5194599;28;20041;-66
2021/10/14 11:36:11;;;;;;;10.45;9.65;;;12.10;54.60;;;;;;5194133;28;20583;-67
2021/10/14 11:38:42;;;;;;;9.73;9.02;;;12.10;58.10;;;;;;5193826;28;20121;-66
2021/10/14 11:41:17;;;;;;;10.18;9.38;;;12.10;55.60;;;;;;5193677;28;20522;-67
2021/10/14 11:44:00;;;;;;;9.82;9.13;;;12.20;54.10;;;;;;5194551;28;20576;-67
2021/10/14 11:46:35;;;;;;;10.00;9.20;;;12.30;56.80;;;;;;5194001;28;20164;-66
2021/10/14 11:49:11;;;;;;;9.63;8.85;;;12.30;56.50;;;;;;5194125;28;20838;-66
2021/10/14 11:51:44;;;;;;;10.30;9.50;;;12.30;57.80;;;;;;5198409;28;20095;-69
2021/10/14 11:54:17;;;;;;;10.05;9.25;;;12.30;59.20;;;;;;5198608;28;20897;-66
2021/10/14 11:56:51;;;;;;;10.02;9.23;;;12.40;56.10;;;;;;5197195;28;20050;-67
2021/10/14 11:59:25;;;;;;;10.25;9.45;;;12.30;56.30;;;;;;5198395;28;20045;-69
2021/10/14 12:02:00;;;;;;;16.17;14.68;;;12.30;51.30;;;;;;5196952;28;20133;-67
2021/10/14 12:04:46;;;;;;;10.45;9.65;;;12.20;53.20;;;;;;5198396;28;20111;-67
2021/10/14 12:07:19;;;;;;;9.85;9.05;;;12.10;53.00;;;;;;5196304;28;20836;-68
2021/10/14 12:09:52;;;;;;;10.07;9.20;;;12.10;56.20;;;;;;5198192;28;20091;-67
2021/10/14 12:12:27;;;;;;;10.50;9.38;;;12.10;55.30;;;;;;5197335;28;20146;-67
2021/10/14 12:15:25;;;;;;;10.25;9.45;;;12.20;56.30;;;;;;5214548;28;20057;-66
2021/10/14 12:17:57;;;;;;;10.10;9.30;;;12.20;55.10;;;;;;5219084;28;20068;-66
2021/10/14 12:20:29;;;;;;;9.82;9.00;;;12.20;52.70;;;;;;5218550;28;20156;-67
2021/10/14 12:23:05;;;;;;;10.55;9.75;;;12.10;56.20;;;;;;5218862;28;20075;-67
2021/10/14 12:25:37;;;;;;;10.25;9.45;;;12.10;55.70;;;;;;5217746;28;20041;-66
2021/10/14 12:28:22;;;;;;;10.50;9.60;;;12.20;56.60;;;;;;5210603;28;20049;-66
2021/10/14 12:31:10;;;;;;;10.70;9.85;;;12.10;53.90;;;;;;5217798;28;20096;-68
2021/10/14 12:33:42;;;;;;;10.20;9.40;;;12.10;55.00;;;;;;5217126;28;20507;-66
2021/10/14 12:36:14;;;;;;;10.25;9.45;;;12.10;53.00;;;;;;5215270;28;20051;-67
2021/10/14 12:38:47;;;;;;;10.18;9.38;;;12.10;55.00;;;;;;5217391;28;20119;-66
2021/10/14 12:41:19;;;;;;;10.10;9.30;;;12.10;51.10;;;;;;5216626;28;20559;-67
2021/10/14 12:43:57;;;;;;;10.55;9.75;;;12.10;53.50;;;;;;5217125;28;20037;-66
2021/10/14 12:51:52;;;;;;;9.93;9.13;;;12.00;52.10;;;;;;5217591;28;20131;-67
2021/10/14 12:54:26;;;;;;;10.20;9.40;;;12.00;52.90;;;;;;5216816;28;20135;-66
2021/10/14 12:57:01;;;;;;;10.90;9.90;;;12.00;54.50;;;;;;5211160;28;20037;-66
2021/10/14 12:59:37;;;;;;;9.85;9.05;;;11.90;50.20;;;;;;5216921;28;20029;-66
2021/10/14 13:02:09;;;;;;;9.60;8.90;;;11.90;52.80;;;;;;5216570;28;20064;-67
2021/10/14 13:04:41;;;;;;;9.95;9.15;;;11.90;52.30;;;;;;5216506;28;20451;-68
2021/10/14 13:07:13;;;;;;;10.30;9.40;;;11.90;56.10;;;;;;5215109;28;20049;-66
2021/10/14 13:09:45;;;;;;;10.13;9.27;;;11.90;55.30;;;;;;5217051;28;20049;-67
2021/10/14 13:12:17;;;;;;;10.00;9.20;;;11.90;51.90;;;;;;5216082;28;20553;-66
2021/10/14 13:14:49;;;;;;;9.75;8.95;;;11.90;52.50;;;;;;5217149;28;20048;-67
2021/10/14 13:17:21;;;;;;;10.60;9.60;;;11.90;56.30;;;;;;5216731;28;20041;-67
2021/10/14 13:19:53;;;;;;;9.80;9.00;;;11.80;58.10;;;;;;5218463;28;20127;-67
2021/10/14 13:22:25;;;;;;;10.00;9.20;;;11.80;50.90;;;;;;5214923;28;20410;-67
2021/10/14 13:24:56;;;;;;;10.30;9.40;;;11.90;52.60;;;;;;5217690;28;20045;-67
2021/10/14 13:27:33;;;;;;;10.48;9.57;;;11.90;50.70;;;;;;5216481;28;20102;-68
2021/10/14 13:30:06;;;;;;;10.40;9.60;;;11.90;54.80;;;;;;5216516;28;20676;-68
2021/10/14 13:32:38;;;;;;;10.40;9.50;;;11.90;55.00;;;;;;5218260;28;20120;-67